Prudence Island, Rhode Island
Current Conditions -  °F | °C
As of 2:53 AM on Wednesday 26 Nov 2014 (Local Time) from KUUU Reporting Station
Broken Clouds Broken Clouds  
Wind Chill: 47°   Ceiling: 11000
Heat Index: 49°   Visibility: 10mi
Dew Point: 31°   Wind: 5mph
Humidity: 50%   Direction: 310°NW
Pressure: 30.17"   Gusts: NA
Location:  41.62°N, 71.31°W
Report Text: KUUU 260753Z AUTO 31004KT 10SM BKN110 09/M01 A3017 RMK AO2 SLP217 T00941006
Loading
Personal Weather Stations






























Interactive Weather Map New forecast layout! Learn more

10-Day Weather Forecast

Advertisements
Track Severe Weather on mobile